Paterna, Spain
Current Conditions -  °F | °C
As of 4:30 PM on Sunday 21 Dec 2014 (Local Time) from LEVC Reporting Station
Clear Clear  
Wind Chill: 63°   Ceiling: Unl
Heat Index: 63°   Visibility: 6mi
Dew Point: 48°   Wind: 5mph
Humidity: 59%   Direction: 130°SE
Pressure: 30.42"   Gusts: NA
Location:  39.5°N, 0.44°W
Report Text: LEVC 211530Z 13004KT CAVOK 17/09 Q1030 NOSIG
Loading
Personal Weather Stations






























Interactive Weather Map New forecast layout! Learn more

10-Day Weather Forecast

Advertisements
Track Severe Weather on mobile